Aidamar — ICSJ — position and weather

sailwx.info

Track history (hours):
 
Tides and Currents Weather Stations Pressure Air Temp Water Temp Dewpoint Dewpoint Depression Visibility Wind Speed Wind Dir Waves Ship Positions

Aidamar

Last reported at 2016-Jun-30 07:30 UTC. Time now 2016-Jun-30 12:17 UTC.
Position N 59°19' E 018°06'.

Length 253 m; draft 7.3 m.

Type: Passenger vessel. MMSI: 247312900.

Date/timePositionNaut miles runAvg speedWind from/ knotsBaromVisibWave heightAir tempDewpointWater temp
2016-Jun-30 07:30N 59°19' E 018°06'10 7.5
2016-Jun-30 06:14N 59°22' E 018°24'8610.6
2016-Jun-29 22:07N 59°33' E 021°12'916.3
2016-Jun-29 21:34N 59°31' E 021°30'1816.4
2016-Jun-29 20:27N 59°29' E 022°06'1516.5
2016-Jun-29 19:33N 59°32' E 022°34'1716.5
2016-Jun-29 18:33N 59°35' E 023°07'1616.4
2016-Jun-29 17:34N 59°40' E 023°37'1716.4
2016-Jun-29 16:33N 59°46' E 024°08'1616.2
2016-Jun-29 15:33N 59°53' E 024°36'1413.5
2016-Jun-29 14:33N 60°04' E 024°54'27 2.3
2016-Jun-29 02:33N 59°56' E 025°46'1616.4
2016-Jun-29 01:34N 59°59' E 026°18'1615.7
2016-Jun-29 00:33N 60°00' E 026°49'1515.3
2016-Jun-28 23:33N 60°04' E 027°19'1616.2
2016-Jun-28 22:33N 60°12' E 027°47'1616.4
2016-Jun-28 21:33N 60°07' E 028°19'1615.7
2016-Jun-28 20:33N 60°03' E 028°49'1615.8
2016-Jun-28 19:33N 60°02' E 029°21'1311.8
2016-Jun-28 18:28N 59°59' E 029°46'910.2
2016-Jun-28 17:33N 59°56' E 030°04'4 4.0
2016-Jun-28 16:33N 59°57' E 030°12'0 0.0
2016-Jun-28 15:31N 59°57' E 030°12'0 0.0
2016-Jun-28 14:33N 59°57' E 030°12'0 0.0
2016-Jun-28 13:33N 59°57' E 030°12'0 0.0
2016-Jun-28 12:33N 59°57' E 030°12'0 0.0
2016-Jun-28 11:33N 59°57' E 030°12'0 0.0
2016-Jun-28 10:33N 59°57' E 030°12'0 0.0
2016-Jun-28 09:33N 59°57' E 030°12'0 0.0
2016-Jun-28 08:33N 59°57' E 030°12'0 0.0
2016-Jun-28 07:33N 59°57' E 030°12'0 0.0
2016-Jun-28 06:33N 59°57' E 030°12'0 0.0
2016-Jun-28 04:33N 59°57' E 030°12'4 3.5
2016-Jun-28 03:33N 59°56' E 030°05'1010.0
2016-Jun-28 02:33N 59°59' E 029°45'1211.8
2016-Jun-28 01:29N 60°02' E 029°21'1415.3
2016-Jun-28 00:33N 60°02' E 028°52'1414.5
2016-Jun-27 23:33N 60°04' E 028°24'1515.5
2016-Jun-27 22:33N 60°10' E 027°55'1515.1
2016-Jun-27 21:33N 60°05' E 027°27'1615.6
2016-Jun-27 20:32N 59°58' E 026°57'1515.5
2016-Jun-27 19:33N 59°57' E 026°27'5116.6
2016-Jun-27 16:28N 59°42' E 024°50'1212.6
2016-Jun-27 15:33N 59°31' E 024°45'4 2.9
2016-Jun-27 14:18N 59°27' E 024°46'0 0.0
2016-Jun-27 11:20N 59°27' E 024°46'0 0.0
2016-Jun-27 07:21N 59°27' E 024°46'0 0.0
2016-Jun-27 06:32N 59°27' E 024°46'0 0.1
2016-Jun-27 05:33N 59°27' E 024°46'7 6.9
2016-Jun-27 04:32N 59°30' E 024°33'37613.8
2016-Jun-26 01:21N 55°38' E 015°22'1316.7
2016-Jun-26 00:33N 55°31' E 015°02'1616.4
2016-Jun-25 23:33N 55°23' E 014°37'1716.5
2016-Jun-25 22:34N 55°10' E 014°19'1615.8
2016-Jun-25 21:33N 54°60' E 013°57'1616.1
2016-Jun-25 20:33N 54°53' E 013°32'1615.9
2016-Jun-25 19:33N 54°50' E 013°05'1515.2
2016-Jun-25 18:33N 54°44' E 012°41'1717.3
2016-Jun-25 17:33N 54°33' E 012°18'1616.2
2016-Jun-25 16:33N 54°18' E 012°05'8 7.6
2016-Jun-25 15:33N 54°11' E 012°06'0 0.0
2016-Jun-25 12:12N 54°11' E 012°06'0 0.0
2016-Jun-25 10:12N 54°11' E 012°06'0 0.0
2016-Jun-25 09:15N 54°11' E 012°06'0 0.0
2016-Jun-25 08:33N 54°11' E 012°06'0 0.0
2016-Jun-25 07:33N 54°11' E 012°06'0 0.0
2016-Jun-25 06:33N 54°11' E 012°06'0 0.0
2016-Jun-25 05:33N 54°11' E 012°06'0 0.2
2016-Jun-25 04:33N 54°10' E 012°06'10 9.6
2016-Jun-25 03:33N 54°19' E 011°60'1212.0
2016-Jun-25 02:34N 54°29' E 012°11'1514.9
2016-Jun-25 01:33N 54°41' E 012°27'1716.3
2016-Jun-25 00:31N 54°49' E 012°53'1516.0
2016-Jun-24 23:33N 54°55' E 013°18'1616.0
2016-Jun-24 22:33N 55°00' E 013°44'1413.7
2016-Jun-24 21:34N 55°06' E 014°05'9 8.7
2016-Jun-24 20:33N 55°13' E 014°15'9 8.9
2016-Jun-24 19:34N 55°20' E 014°25'9 9.3
2016-Jun-24 18:34N 55°27' E 014°36'1615.6
2016-Jun-24 17:33N 55°34' E 015°00'1515.4
2016-Jun-24 16:33N 55°42' E 015°23'1615.9
2016-Jun-24 15:33N 55°51' E 015°47'22610.2
2016-Jun-23 17:27N 59°22' E 018°16'4 4.7
2016-Jun-23 16:30N 59°21' E 018°08'0 0.0
2016-Jun-23 15:28N 59°21' E 018°08'0 0.0
2016-Jun-23 14:33N 59°21' E 018°08'0 0.0
2016-Jun-23 13:30N 59°21' E 018°08'0 0.0
2016-Jun-23 12:31N 59°21' E 018°08'0 0.0
2016-Jun-23 11:32N 59°21' E 018°08'0 0.0
2016-Jun-23 10:33N 59°21' E 018°08'0 0.0
2016-Jun-23 09:30N 59°21' E 018°08'0 0.0
2016-Jun-23 08:33N 59°21' E 018°08'0 0.0
2016-Jun-23 07:31N 59°21' E 018°08'9510.6
2016-Jun-22 22:33N 59°33' E 021°13'1616.2
2016-Jun-22 21:34N 59°30' E 021°44'1915.9
2016-Jun-22 20:23N 59°29' E 022°22'1515.8
2016-Jun-22 19:27N 59°33' E 022°49'1415.9
2016-Jun-22 18:33N 59°38' E 023°16'1615.8
2016-Jun-22 17:33N 59°41' E 023°47'1515.7
2016-Jun-22 16:34N 59°47' E 024°15'1815.4
2016-Jun-22 15:23N 59°57' E 024°46'47 3.4
2016-Jun-22 01:33N 59°59' E 026°20'1715.2
2016-Jun-22 00:26N 59°60' E 026°54'1314.9
2016-Jun-21 23:34N 60°04' E 027°19'1615.7
2016-Jun-21 22:33N 60°12' E 027°46'1615.8
2016-Jun-21 21:33N 60°08' E 028°17'1515.4
2016-Jun-21 20:33N 60°03' E 028°46'1616.1
2016-Jun-21 19:33N 60°02' E 029°18'1312.8
2016-Jun-21 18:31N 59°59' E 029°44'1010.2
2016-Jun-21 17:33N 59°56' E 030°03'4 4.3
2016-Jun-21 16:33N 59°57' E 030°11'0 0.0
2016-Jun-21 15:32N 59°57' E 030°11'0 0.0
2016-Jun-21 14:31N 59°57' E 030°11'0 0.0
2016-Jun-21 13:33N 59°57' E 030°11'0 0.0
2016-Jun-21 12:31N 59°57' E 030°11'0 0.0
2016-Jun-21 11:31N 59°57' E 030°11'0 0.0
2016-Jun-21 10:32N 59°57' E 030°11'0 0.0
2016-Jun-21 09:30N 59°57' E 030°11'0 0.0
2016-Jun-21 08:32N 59°57' E 030°11'0 0.0
2016-Jun-21 07:30N 59°57' E 030°11'0 0.0
2016-Jun-21 04:33N 59°57' E 030°11'3 2.8
2016-Jun-21 03:33N 59°56' E 030°06'1010.3
2016-Jun-21 02:33N 59°59' E 029°46'1212.1
2016-Jun-21 01:33N 60°02' E 029°22'3414.9
2016-Jun-20 23:17N 60°07' E 028°15'1115.0
2016-Jun-20 22:33N 60°10' E 027°54'1313.4
2016-Jun-20 21:33N 60°05' E 027°29'1616.0
2016-Jun-20 20:33N 59°58' E 027°00'1616.0
2016-Jun-20 19:34N 59°58' E 026°29'2116.3
2016-Jun-20 18:15N 59°52' E 025°48'1816.3
2016-Jun-20 17:08N 59°46' E 025°13'1116.1
2016-Jun-20 16:28N 59°43' E 024°53'1213.2
2016-Jun-20 15:33N 59°32' E 024°44'5 4.1
2016-Jun-20 14:20N 59°27' E 024°46'0 0.0
2016-Jun-20 13:29N 59°27' E 024°46'0 0.0
2016-Jun-20 12:32N 59°27' E 024°46'0 0.0
2016-Jun-20 10:26N 59°27' E 024°46'0 0.0
2016-Jun-20 08:27N 59°27' E 024°46'  
Track history (hours):
 
Tides and Currents Weather Stations Pressure Air Temp Water Temp Dewpoint Dewpoint Depression Visibility Wind Speed Wind Dir Waves Ship Positions

Aidamar

Last reported at 2016-Jun-30 07:30 UTC. Time now 2016-Jun-30 12:17 UTC.
Position N 59°19' E 018°06'.

Length 253 m; draft 7.3 m.

Type: Passenger vessel. MMSI: 247312900.

Date/timePositionNaut miles runAvg speedWind from/ knotsBaromVisibWave heightAir tempDewpointWater temp
2016-Jun-30 07:30N 59°19' E 018°06'10 7.5
2016-Jun-30 06:14N 59°22' E 018°24'8610.6
2016-Jun-29 22:07N 59°33' E 021°12'916.3
2016-Jun-29 21:34N 59°31' E 021°30'1816.4
2016-Jun-29 20:27N 59°29' E 022°06'1516.5
2016-Jun-29 19:33N 59°32' E 022°34'1716.5
2016-Jun-29 18:33N 59°35' E 023°07'1616.4
2016-Jun-29 17:34N 59°40' E 023°37'1716.4
2016-Jun-29 16:33N 59°46' E 024°08'1616.2
2016-Jun-29 15:33N 59°53' E 024°36'1413.5
2016-Jun-29 14:33N 60°04' E 024°54'27 2.3
2016-Jun-29 02:33N 59°56' E 025°46'1616.4
2016-Jun-29 01:34N 59°59' E 026°18'1615.7
2016-Jun-29 00:33N 60°00' E 026°49'1515.3
2016-Jun-28 23:33N 60°04' E 027°19'1616.2
2016-Jun-28 22:33N 60°12' E 027°47'1616.4
2016-Jun-28 21:33N 60°07' E 028°19'1615.7
2016-Jun-28 20:33N 60°03' E 028°49'1615.8
2016-Jun-28 19:33N 60°02' E 029°21'1311.8
2016-Jun-28 18:28N 59°59' E 029°46'910.2
2016-Jun-28 17:33N 59°56' E 030°04'4 4.0
2016-Jun-28 16:33N 59°57' E 030°12'0 0.0
2016-Jun-28 15:31N 59°57' E 030°12'0 0.0
2016-Jun-28 14:33N 59°57' E 030°12'0 0.0
2016-Jun-28 13:33N 59°57' E 030°12'0 0.0
2016-Jun-28 12:33N 59°57' E 030°12'0 0.0
2016-Jun-28 11:33N 59°57' E 030°12'0 0.0
2016-Jun-28 10:33N 59°57' E 030°12'0 0.0
2016-Jun-28 09:33N 59°57' E 030°12'0 0.0
2016-Jun-28 08:33N 59°57' E 030°12'0 0.0
2016-Jun-28 07:33N 59°57' E 030°12'0 0.0
2016-Jun-28 06:33N 59°57' E 030°12'0 0.0
2016-Jun-28 04:33N 59°57' E 030°12'4 3.5
2016-Jun-28 03:33N 59°56' E 030°05'1010.0
2016-Jun-28 02:33N 59°59' E 029°45'1211.8
2016-Jun-28 01:29N 60°02' E 029°21'1415.3
2016-Jun-28 00:33N 60°02' E 028°52'1414.5
2016-Jun-27 23:33N 60°04' E 028°24'1515.5
2016-Jun-27 22:33N 60°10' E 027°55'1515.1
2016-Jun-27 21:33N 60°05' E 027°27'1615.6
2016-Jun-27 20:32N 59°58' E 026°57'1515.5
2016-Jun-27 19:33N 59°57' E 026°27'5116.6
2016-Jun-27 16:28N 59°42' E 024°50'1212.6
2016-Jun-27 15:33N 59°31' E 024°45'4 2.9
2016-Jun-27 14:18N 59°27' E 024°46'0 0.0
2016-Jun-27 11:20N 59°27' E 024°46'0 0.0
2016-Jun-27 07:21N 59°27' E 024°46'0 0.0
2016-Jun-27 06:32N 59°27' E 024°46'0 0.1
2016-Jun-27 05:33N 59°27' E 024°46'7 6.9
2016-Jun-27 04:32N 59°30' E 024°33'37613.8
2016-Jun-26 01:21N 55°38' E 015°22'1316.7
2016-Jun-26 00:33N 55°31' E 015°02'1616.4
2016-Jun-25 23:33N 55°23' E 014°37'1716.5
2016-Jun-25 22:34N 55°10' E 014°19'1615.8
2016-Jun-25 21:33N 54°60' E 013°57'1616.1
2016-Jun-25 20:33N 54°53' E 013°32'1615.9
2016-Jun-25 19:33N 54°50' E 013°05'1515.2
2016-Jun-25 18:33N 54°44' E 012°41'1717.3
2016-Jun-25 17:33N 54°33' E 012°18'1616.2
2016-Jun-25 16:33N 54°18' E 012°05'8 7.6
2016-Jun-25 15:33N 54°11' E 012°06'0 0.0
2016-Jun-25 12:12N 54°11' E 012°06'0 0.0
2016-Jun-25 10:12N 54°11' E 012°06'0 0.0
2016-Jun-25 09:15N 54°11' E 012°06'0 0.0
2016-Jun-25 08:33N 54°11' E 012°06'0 0.0
2016-Jun-25 07:33N 54°11' E 012°06'0 0.0
2016-Jun-25 06:33N 54°11' E 012°06'0 0.0
2016-Jun-25 05:33N 54°11' E 012°06'0 0.2
2016-Jun-25 04:33N 54°10' E 012°06'10 9.6
2016-Jun-25 03:33N 54°19' E 011°60'1212.0
2016-Jun-25 02:34N 54°29' E 012°11'1514.9
2016-Jun-25 01:33N 54°41' E 012°27'1716.3
2016-Jun-25 00:31N 54°49' E 012°53'1516.0
2016-Jun-24 23:33N 54°55' E 013°18'1616.0
2016-Jun-24 22:33N 55°00' E 013°44'1413.7
2016-Jun-24 21:34N 55°06' E 014°05'9 8.7
2016-Jun-24 20:33N 55°13' E 014°15'9 8.9
2016-Jun-24 19:34N 55°20' E 014°25'9 9.3
2016-Jun-24 18:34N 55°27' E 014°36'1615.6
2016-Jun-24 17:33N 55°34' E 015°00'1515.4
2016-Jun-24 16:33N 55°42' E 015°23'1615.9
2016-Jun-24 15:33N 55°51' E 015°47'22610.2
2016-Jun-23 17:27N 59°22' E 018°16'4 4.7
2016-Jun-23 16:30N 59°21' E 018°08'0 0.0
2016-Jun-23 15:28N 59°21' E 018°08'0 0.0
2016-Jun-23 14:33N 59°21' E 018°08'0 0.0
2016-Jun-23 13:30N 59°21' E 018°08'0 0.0
2016-Jun-23 12:31N 59°21' E 018°08'0 0.0
2016-Jun-23 11:32N 59°21' E 018°08'0 0.0
2016-Jun-23 10:33N 59°21' E 018°08'0 0.0
2016-Jun-23 09:30N 59°21' E 018°08'0 0.0
2016-Jun-23 08:33N 59°21' E 018°08'0 0.0
2016-Jun-23 07:31N 59°21' E 018°08'9510.6
2016-Jun-22 22:33N 59°33' E 021°13'1616.2
2016-Jun-22 21:34N 59°30' E 021°44'1915.9
2016-Jun-22 20:23N 59°29' E 022°22'1515.8
2016-Jun-22 19:27N 59°33' E 022°49'1415.9
2016-Jun-22 18:33N 59°38' E 023°16'1615.8
2016-Jun-22 17:33N 59°41' E 023°47'1515.7
2016-Jun-22 16:34N 59°47' E 024°15'1815.4
2016-Jun-22 15:23N 59°57' E 024°46'47 3.4
2016-Jun-22 01:33N 59°59' E 026°20'1715.2
2016-Jun-22 00:26N 59°60' E 026°54'1314.9
2016-Jun-21 23:34N 60°04' E 027°19'1615.7
2016-Jun-21 22:33N 60°12' E 027°46'1615.8
2016-Jun-21 21:33N 60°08' E 028°17'1515.4
2016-Jun-21 20:33N 60°03' E 028°46'1616.1
2016-Jun-21 19:33N 60°02' E 029°18'1312.8
2016-Jun-21 18:31N 59°59' E 029°44'1010.2
2016-Jun-21 17:33N 59°56' E 030°03'4 4.3
2016-Jun-21 16:33N 59°57' E 030°11'0 0.0
2016-Jun-21 15:32N 59°57' E 030°11'0 0.0
2016-Jun-21 14:31N 59°57' E 030°11'0 0.0
2016-Jun-21 13:33N 59°57' E 030°11'0 0.0
2016-Jun-21 12:31N 59°57' E 030°11'0 0.0
2016-Jun-21 11:31N 59°57' E 030°11'0 0.0
2016-Jun-21 10:32N 59°57' E 030°11'0 0.0
2016-Jun-21 09:30N 59°57' E 030°11'0 0.0
2016-Jun-21 08:32N 59°57' E 030°11'0 0.0
2016-Jun-21 07:30N 59°57' E 030°11'0 0.0
2016-Jun-21 04:33N 59°57' E 030°11'3 2.8
2016-Jun-21 03:33N 59°56' E 030°06'1010.3
2016-Jun-21 02:33N 59°59' E 029°46'1212.1
2016-Jun-21 01:33N 60°02' E 029°22'3414.9
2016-Jun-20 23:17N 60°07' E 028°15'1115.0
2016-Jun-20 22:33N 60°10' E 027°54'1313.4
2016-Jun-20 21:33N 60°05' E 027°29'1616.0
2016-Jun-20 20:33N 59°58' E 027°00'1616.0
2016-Jun-20 19:34N 59°58' E 026°29'2116.3
2016-Jun-20 18:15N 59°52' E 025°48'1816.3
2016-Jun-20 17:08N 59°46' E 025°13'1116.1
2016-Jun-20 16:28N 59°43' E 024°53'1213.2
2016-Jun-20 15:33N 59°32' E 024°44'5 4.1
2016-Jun-20 14:20N 59°27' E 024°46'0 0.0
2016-Jun-20 13:29N 59°27' E 024°46'0 0.0
2016-Jun-20 12:32N 59°27' E 024°46'0 0.0
2016-Jun-20 10:26N 59°27' E 024°46'0 0.0
2016-Jun-20 08:27N 59°27' E 024°46'  

Dump ship's entire track history